sensor_id;sensor_type;location;lat;lon;timestamp;P1;durP1;ratioP1;P2;durP2;ratioP2
74523;SDS011;63074;44.696;10.358;2022-12-10T00:01:09;24.77;;;16.05;;
74523;SDS011;63074;44.696;10.358;2022-12-10T00:03:40;25.90;;;14.75;;
74523;SDS011;63074;44.696;10.358;2022-12-10T00:06:08;27.10;;;14.85;;
74523;SDS011;63074;44.696;10.358;2022-12-10T00:08:39;25.85;;;14.95;;
74523;SDS011;63074;44.696;10.358;2022-12-10T00:11:06;31.65;;;16.40;;
74523;SDS011;63074;44.696;10.358;2022-12-10T00:13:34;31.60;;;16.17;;
74523;SDS011;63074;44.696;10.358;2022-12-10T00:16:02;35.10;;;17.63;;
74523;SDS011;63074;44.696;10.358;2022-12-10T00:18:29;35.67;;;18.40;;
74523;SDS011;63074;44.696;10.358;2022-12-10T00:20:55;33.58;;;18.38;;
74523;SDS011;63074;44.696;10.358;2022-12-10T00:23:22;36.83;;;18.08;;
74523;SDS011;63074;44.696;10.358;2022-12-10T00:25:48;35.95;;;16.50;;
74523;SDS011;63074;44.696;10.358;2022-12-10T00:28:14;40.97;;;17.95;;
74523;SDS011;63074;44.696;10.358;2022-12-10T00:30:40;40.90;;;17.65;;
74523;SDS011;63074;44.696;10.358;2022-12-10T00:33:07;32.45;;;17.20;;
74523;SDS011;63074;44.696;10.358;2022-12-10T00:35:36;37.13;;;16.73;;
74523;SDS011;63074;44.696;10.358;2022-12-10T00:38:03;37.55;;;17.13;;
74523;SDS011;63074;44.696;10.358;2022-12-10T00:40:29;41.10;;;20.00;;
74523;SDS011;63074;44.696;10.358;2022-12-10T00:42:55;37.08;;;17.40;;
74523;SDS011;63074;44.696;10.358;2022-12-10T00:45:21;36.30;;;17.63;;
74523;SDS011;63074;44.696;10.358;2022-12-10T00:47:48;37.42;;;18.00;;
74523;SDS011;63074;44.696;10.358;2022-12-10T00:50:14;35.67;;;16.20;;
74523;SDS011;63074;44.696;10.358;2022-12-10T00:52:40;40.00;;;17.60;;
74523;SDS011;63074;44.696;10.358;2022-12-10T00:55:06;42.05;;;18.65;;
74523;SDS011;63074;44.696;10.358;2022-12-10T00:57:33;38.95;;;17.73;;
74523;SDS011;63074;44.696;10.358;2022-12-10T00:59:59;40.15;;;18.83;;
74523;SDS011;63074;44.696;10.358;2022-12-10T01:02:25;33.97;;;16.05;;
74523;SDS011;63074;44.696;10.358;2022-12-10T01:04:52;36.53;;;17.58;;
74523;SDS011;63074;44.696;10.358;2022-12-10T01:07:18;36.95;;;16.52;;
74523;SDS011;63074;44.696;10.358;2022-12-10T01:09:45;36.20;;;16.10;;
74523;SDS011;63074;44.696;10.358;2022-12-10T01:12:11;33.92;;;17.13;;
74523;SDS011;63074;44.696;10.358;2022-12-10T01:14:37;39.03;;;18.73;;
74523;SDS011;63074;44.696;10.358;2022-12-10T01:17:04;38.22;;;16.48;;
74523;SDS011;63074;44.696;10.358;2022-12-10T01:19:31;39.15;;;18.00;;
74523;SDS011;63074;44.696;10.358;2022-12-10T01:21:58;38.15;;;17.65;;
74523;SDS011;63074;44.696;10.358;2022-12-10T01:24:25;31.73;;;17.17;;
74523;SDS011;63074;44.696;10.358;2022-12-10T01:26:53;35.47;;;17.52;;
74523;SDS011;63074;44.696;10.358;2022-12-10T01:29:22;34.30;;;17.40;;
74523;SDS011;63074;44.696;10.358;2022-12-10T01:31:50;34.85;;;16.40;;
74523;SDS011;63074;44.696;10.358;2022-12-10T01:34:18;39.08;;;18.00;;
74523;SDS011;63074;44.696;10.358;2022-12-10T01:36:45;39.60;;;19.80;;
74523;SDS011;63074;44.696;10.358;2022-12-10T01:39:15;38.10;;;17.35;;
74523;SDS011;63074;44.696;10.358;2022-12-10T01:41:44;37.28;;;17.48;;
74523;SDS011;63074;44.696;10.358;2022-12-10T01:46:45;40.13;;;18.42;;
74523;SDS011;63074;44.696;10.358;2022-12-10T01:49:23;37.10;;;16.27;;
74523;SDS011;63074;44.696;10.358;2022-12-10T01:52:00;33.20;;;15.40;;
74523;SDS011;63074;44.696;10.358;2022-12-10T01:54:29;34.78;;;16.25;;
74523;SDS011;63074;44.696;10.358;2022-12-10T01:57:00;34.90;;;16.00;;
74523;SDS011;63074;44.696;10.358;2022-12-10T01:59:30;32.33;;;16.48;;
74523;SDS011;63074;44.696;10.358;2022-12-10T02:07:19;28.02;;;15.68;;
74523;SDS011;63074;44.696;10.358;2022-12-10T02:09:58;29.73;;;14.65;;
74523;SDS011;63074;44.696;10.358;2022-12-10T02:12:58;31.30;;;14.43;;
74523;SDS011;63074;44.696;10.358;2022-12-10T02:15:29;29.17;;;13.85;;
74523;SDS011;63074;44.696;10.358;2022-12-10T02:18:07;28.40;;;14.75;;
74523;SDS011;63074;44.696;10.358;2022-12-10T02:21:32;28.08;;;13.55;;
74523;SDS011;63074;44.696;10.358;2022-12-10T02:23:43;35.08;;;16.35;;
74523;SDS011;63074;44.696;10.358;2022-12-10T02:26:26;31.38;;;16.90;;
74523;SDS011;63074;44.696;10.358;2022-12-10T02:29:12;30.63;;;14.48;;
74523;SDS011;63074;44.696;10.358;2022-12-10T02:31:44;31.83;;;15.32;;
74523;SDS011;63074;44.696;10.358;2022-12-10T02:34:14;26.52;;;13.93;;
74523;SDS011;63074;44.696;10.358;2022-12-10T02:36:43;26.55;;;13.48;;
74523;SDS011;63074;44.696;10.358;2022-12-10T02:39:14;28.48;;;13.23;;
74523;SDS011;63074;44.696;10.358;2022-12-10T02:41:49;25.40;;;12.80;;
74523;SDS011;63074;44.696;10.358;2022-12-10T02:44:17;27.40;;;13.68;;
74523;SDS011;63074;44.696;10.358;2022-12-10T02:46:45;25.77;;;13.65;;
74523;SDS011;63074;44.696;10.358;2022-12-10T02:49:15;26.15;;;13.57;;
74523;SDS011;63074;44.696;10.358;2022-12-10T02:51:42;26.63;;;13.45;;
74523;SDS011;63074;44.696;10.358;2022-12-10T02:57:23;23.88;;;14.20;;
74523;SDS011;63074;44.696;10.358;2022-12-10T02:59:56;21.42;;;11.93;;
74523;SDS011;63074;44.696;10.358;2022-12-10T03:07:57;24.27;;;13.15;;
74523;SDS011;63074;44.696;10.358;2022-12-10T03:10:34;27.55;;;13.55;;
74523;SDS011;63074;44.696;10.358;2022-12-10T03:13:21;23.00;;;11.60;;
74523;SDS011;63074;44.696;10.358;2022-12-10T03:15:54;22.73;;;13.02;;
74523;SDS011;63074;44.696;10.358;2022-12-10T03:18:22;21.92;;;12.00;;
74523;SDS011;63074;44.696;10.358;2022-12-10T03:20:51;23.70;;;13.07;;
74523;SDS011;63074;44.696;10.358;2022-12-10T03:23:21;21.55;;;13.27;;
74523;SDS011;63074;44.696;10.358;2022-12-10T03:25:48;23.52;;;11.50;;
74523;SDS011;63074;44.696;10.358;2022-12-10T03:28:16;23.40;;;12.02;;
74523;SDS011;63074;44.696;10.358;2022-12-10T03:30:45;23.38;;;12.20;;
74523;SDS011;63074;44.696;10.358;2022-12-10T03:33:14;21.85;;;12.57;;
74523;SDS011;63074;44.696;10.358;2022-12-10T03:35:41;20.13;;;12.18;;
74523;SDS011;63074;44.696;10.358;2022-12-10T03:38:08;23.17;;;12.25;;
74523;SDS011;63074;44.696;10.358;2022-12-10T03:40:35;22.00;;;12.02;;
74523;SDS011;63074;44.696;10.358;2022-12-10T03:43:01;23.75;;;12.10;;
74523;SDS011;63074;44.696;10.358;2022-12-10T03:45:27;20.92;;;12.25;;
74523;SDS011;63074;44.696;10.358;2022-12-10T03:47:54;21.40;;;13.02;;
74523;SDS011;63074;44.696;10.358;2022-12-10T03:50:20;19.52;;;12.40;;
74523;SDS011;63074;44.696;10.358;2022-12-10T03:52:46;20.70;;;12.85;;
74523;SDS011;63074;44.696;10.358;2022-12-10T03:55:12;23.63;;;11.88;;
74523;SDS011;63074;44.696;10.358;2022-12-10T03:57:38;22.25;;;11.52;;
74523;SDS011;63074;44.696;10.358;2022-12-10T04:00:06;21.00;;;12.48;;
74523;SDS011;63074;44.696;10.358;2022-12-10T04:02:33;23.88;;;13.40;;
74523;SDS011;63074;44.696;10.358;2022-12-10T04:04:59;27.95;;;14.48;;
74523;SDS011;63074;44.696;10.358;2022-12-10T04:07:25;22.75;;;12.32;;
74523;SDS011;63074;44.696;10.358;2022-12-10T04:09:51;22.10;;;11.25;;
74523;SDS011;63074;44.696;10.358;2022-12-10T04:12:17;22.25;;;11.57;;
74523;SDS011;63074;44.696;10.358;2022-12-10T04:14:44;21.65;;;12.77;;
74523;SDS011;63074;44.696;10.358;2022-12-10T04:17:30;21.80;;;11.75;;
74523;SDS011;63074;44.696;10.358;2022-12-10T04:19:58;20.73;;;11.00;;
74523;SDS011;63074;44.696;10.358;2022-12-10T04:22:24;22.85;;;12.05;;
74523;SDS011;63074;44.696;10.358;2022-12-10T04:25:12;20.92;;;12.18;;
74523;SDS011;63074;44.696;10.358;2022-12-10T04:27:57;20.60;;;12.60;;
74523;SDS011;63074;44.696;10.358;2022-12-10T04:30:23;21.42;;;12.13;;
74523;SDS011;63074;44.696;10.358;2022-12-10T04:32:49;20.92;;;11.73;;
74523;SDS011;63074;44.696;10.358;2022-12-10T04:35:16;22.95;;;11.68;;
74523;SDS011;63074;44.696;10.358;2022-12-10T04:37:42;21.52;;;12.73;;
74523;SDS011;63074;44.696;10.358;2022-12-10T04:40:08;20.30;;;13.40;;
74523;SDS011;63074;44.696;10.358;2022-12-10T04:42:35;21.55;;;11.95;;
74523;SDS011;63074;44.696;10.358;2022-12-10T04:45:01;22.17;;;11.20;;
74523;SDS011;63074;44.696;10.358;2022-12-10T04:47:27;20.75;;;12.30;;
74523;SDS011;63074;44.696;10.358;2022-12-10T04:49:53;22.35;;;12.98;;
74523;SDS011;63074;44.696;10.358;2022-12-10T04:52:20;22.15;;;13.10;;
74523;SDS011;63074;44.696;10.358;2022-12-10T04:54:46;22.83;;;13.35;;
74523;SDS011;63074;44.696;10.358;2022-12-10T04:57:12;22.77;;;12.13;;
74523;SDS011;63074;44.696;10.358;2022-12-10T04:59:39;21.90;;;12.93;;
74523;SDS011;63074;44.696;10.358;2022-12-10T05:02:05;19.60;;;12.60;;
74523;SDS011;63074;44.696;10.358;2022-12-10T05:04:33;20.25;;;11.88;;
74523;SDS011;63074;44.696;10.358;2022-12-10T05:07:00;21.85;;;11.98;;
74523;SDS011;63074;44.696;10.358;2022-12-10T05:09:26;21.38;;;12.75;;
74523;SDS011;63074;44.696;10.358;2022-12-10T05:11:52;19.02;;;12.38;;
74523;SDS011;63074;44.696;10.358;2022-12-10T05:14:18;21.17;;;11.70;;
74523;SDS011;63074;44.696;10.358;2022-12-10T05:16:45;18.55;;;11.07;;
74523;SDS011;63074;44.696;10.358;2022-12-10T05:19:13;19.52;;;11.35;;
74523;SDS011;63074;44.696;10.358;2022-12-10T05:21:39;21.25;;;12.02;;
74523;SDS011;63074;44.696;10.358;2022-12-10T05:24:24;21.92;;;11.77;;
74523;SDS011;63074;44.696;10.358;2022-12-10T05:26:51;18.40;;;11.75;;
74523;SDS011;63074;44.696;10.358;2022-12-10T05:29:17;21.95;;;11.95;;
74523;SDS011;63074;44.696;10.358;2022-12-10T05:31:44;20.65;;;11.52;;
74523;SDS011;63074;44.696;10.358;2022-12-10T05:34:10;19.33;;;11.85;;
74523;SDS011;63074;44.696;10.358;2022-12-10T05:36:36;16.67;;;11.13;;
74523;SDS011;63074;44.696;10.358;2022-12-10T05:39:03;19.67;;;11.32;;
74523;SDS011;63074;44.696;10.358;2022-12-10T05:41:30;20.55;;;13.02;;
74523;SDS011;63074;44.696;10.358;2022-12-10T05:43:59;21.00;;;11.52;;
74523;SDS011;63074;44.696;10.358;2022-12-10T05:46:26;19.60;;;11.70;;
74523;SDS011;63074;44.696;10.358;2022-12-10T05:48:55;19.95;;;11.10;;
74523;SDS011;63074;44.696;10.358;2022-12-10T05:51:24;20.08;;;11.57;;
74523;SDS011;63074;44.696;10.358;2022-12-10T05:53:52;21.65;;;12.00;;
74523;SDS011;63074;44.696;10.358;2022-12-10T05:56:20;22.10;;;12.45;;
74523;SDS011;63074;44.696;10.358;2022-12-10T05:58:48;21.30;;;12.32;;
74523;SDS011;63074;44.696;10.358;2022-12-10T06:01:17;23.42;;;13.07;;
74523;SDS011;63074;44.696;10.358;2022-12-10T06:03:45;18.15;;;11.55;;
74523;SDS011;63074;44.696;10.358;2022-12-10T06:06:12;22.25;;;12.50;;
74523;SDS011;63074;44.696;10.358;2022-12-10T06:08:39;21.55;;;13.38;;
74523;SDS011;63074;44.696;10.358;2022-12-10T06:11:06;19.25;;;11.35;;
74523;SDS011;63074;44.696;10.358;2022-12-10T06:13:35;21.13;;;12.88;;
74523;SDS011;63074;44.696;10.358;2022-12-10T06:16:10;21.67;;;11.68;;
74523;SDS011;63074;44.696;10.358;2022-12-10T06:18:37;22.98;;;12.27;;
74523;SDS011;63074;44.696;10.358;2022-12-10T06:21:07;22.45;;;12.82;;
74523;SDS011;63074;44.696;10.358;2022-12-10T06:23:39;22.05;;;12.63;;
74523;SDS011;63074;44.696;10.358;2022-12-10T06:28:34;23.75;;;13.90;;
74523;SDS011;63074;44.696;10.358;2022-12-10T06:31:01;21.52;;;12.38;;
74523;SDS011;63074;44.696;10.358;2022-12-10T06:33:27;21.85;;;11.65;;
74523;SDS011;63074;44.696;10.358;2022-12-10T06:35:53;22.70;;;13.20;;
74523;SDS011;63074;44.696;10.358;2022-12-10T06:38:20;23.92;;;13.55;;
74523;SDS011;63074;44.696;10.358;2022-12-10T06:40:46;23.38;;;13.10;;
74523;SDS011;63074;44.696;10.358;2022-12-10T06:43:12;23.42;;;13.45;;
74523;SDS011;63074;44.696;10.358;2022-12-10T06:45:39;20.83;;;12.95;;
74523;SDS011;63074;44.696;10.358;2022-12-10T06:48:06;21.50;;;12.02;;
74523;SDS011;63074;44.696;10.358;2022-12-10T06:50:33;25.45;;;12.73;;
74523;SDS011;63074;44.696;10.358;2022-12-10T06:52:59;21.23;;;12.75;;
74523;SDS011;63074;44.696;10.358;2022-12-10T06:55:26;20.52;;;12.27;;
74523;SDS011;63074;44.696;10.358;2022-12-10T06:57:52;23.33;;;13.43;;
74523;SDS011;63074;44.696;10.358;2022-12-10T07:00:19;23.55;;;13.98;;
74523;SDS011;63074;44.696;10.358;2022-12-10T07:02:45;22.98;;;12.88;;
74523;SDS011;63074;44.696;10.358;2022-12-10T07:05:12;25.38;;;13.35;;
74523;SDS011;63074;44.696;10.358;2022-12-10T07:07:39;25.92;;;13.48;;
74523;SDS011;63074;44.696;10.358;2022-12-10T07:10:05;22.92;;;12.90;;
74523;SDS011;63074;44.696;10.358;2022-12-10T07:12:32;23.83;;;13.82;;
74523;SDS011;63074;44.696;10.358;2022-12-10T07:14:58;23.40;;;13.45;;
74523;SDS011;63074;44.696;10.358;2022-12-10T07:17:24;20.85;;;12.93;;
74523;SDS011;63074;44.696;10.358;2022-12-10T07:19:51;24.65;;;12.98;;
74523;SDS011;63074;44.696;10.358;2022-12-10T07:22:18;23.48;;;13.00;;
74523;SDS011;63074;44.696;10.358;2022-12-10T07:24:44;26.58;;;13.15;;
74523;SDS011;63074;44.696;10.358;2022-12-10T07:27:10;24.90;;;14.25;;
74523;SDS011;63074;44.696;10.358;2022-12-10T07:29:36;25.00;;;13.55;;
74523;SDS011;63074;44.696;10.358;2022-12-10T07:32:03;22.98;;;13.63;;
74523;SDS011;63074;44.696;10.358;2022-12-10T07:34:29;23.00;;;13.57;;
74523;SDS011;63074;44.696;10.358;2022-12-10T07:36:55;27.90;;;14.02;;
74523;SDS011;63074;44.696;10.358;2022-12-10T07:39:21;27.38;;;13.82;;
74523;SDS011;63074;44.696;10.358;2022-12-10T07:41:48;28.63;;;16.10;;
74523;SDS011;63074;44.696;10.358;2022-12-10T07:44:16;25.63;;;13.52;;
74523;SDS011;63074;44.696;10.358;2022-12-10T07:46:44;28.45;;;15.90;;
74523;SDS011;63074;44.696;10.358;2022-12-10T07:49:10;31.33;;;17.05;;
74523;SDS011;63074;44.696;10.358;2022-12-10T07:51:37;33.53;;;17.50;;
74523;SDS011;63074;44.696;10.358;2022-12-10T07:54:04;33.53;;;17.95;;
74523;SDS011;63074;44.696;10.358;2022-12-10T07:56:30;35.85;;;17.92;;
74523;SDS011;63074;44.696;10.358;2022-12-10T07:58:56;36.58;;;18.10;;
74523;SDS011;63074;44.696;10.358;2022-12-10T08:01:23;38.00;;;19.10;;
74523;SDS011;63074;44.696;10.358;2022-12-10T08:03:51;39.80;;;19.70;;
74523;SDS011;63074;44.696;10.358;2022-12-10T08:06:19;41.38;;;19.95;;
74523;SDS011;63074;44.696;10.358;2022-12-10T08:08:46;35.38;;;19.70;;
74523;SDS011;63074;44.696;10.358;2022-12-10T08:11:13;39.00;;;19.50;;
74523;SDS011;63074;44.696;10.358;2022-12-10T08:13:41;35.22;;;18.50;;
74523;SDS011;63074;44.696;10.358;2022-12-10T08:16:12;35.22;;;19.60;;
74523;SDS011;63074;44.696;10.358;2022-12-10T08:18:41;36.00;;;19.13;;
74523;SDS011;63074;44.696;10.358;2022-12-10T08:21:09;36.30;;;18.92;;
74523;SDS011;63074;44.696;10.358;2022-12-10T08:23:38;36.65;;;18.95;;
74523;SDS011;63074;44.696;10.358;2022-12-10T08:26:06;39.97;;;19.70;;
74523;SDS011;63074;44.696;10.358;2022-12-10T08:28:35;35.75;;;19.90;;
74523;SDS011;63074;44.696;10.358;2022-12-10T08:31:02;41.33;;;19.98;;
74523;SDS011;63074;44.696;10.358;2022-12-10T08:33:28;37.13;;;19.52;;
74523;SDS011;63074;44.696;10.358;2022-12-10T08:35:58;41.50;;;21.02;;
74523;SDS011;63074;44.696;10.358;2022-12-10T08:38:25;39.15;;;19.73;;
74523;SDS011;63074;44.696;10.358;2022-12-10T08:40:51;35.38;;;18.60;;
74523;SDS011;63074;44.696;10.358;2022-12-10T08:43:18;35.08;;;20.02;;
74523;SDS011;63074;44.696;10.358;2022-12-10T08:45:44;37.10;;;19.75;;
74523;SDS011;63074;44.696;10.358;2022-12-10T08:48:10;33.58;;;18.75;;
74523;SDS011;63074;44.696;10.358;2022-12-10T08:50:37;36.58;;;18.77;;
74523;SDS011;63074;44.696;10.358;2022-12-10T08:53:03;34.55;;;17.42;;
74523;SDS011;63074;44.696;10.358;2022-12-10T08:55:30;40.25;;;19.27;;
74523;SDS011;63074;44.696;10.358;2022-12-10T08:57:57;35.47;;;17.38;;
74523;SDS011;63074;44.696;10.358;2022-12-10T09:00:24;38.40;;;18.52;;
74523;SDS011;63074;44.696;10.358;2022-12-10T09:02:51;41.33;;;20.58;;
74523;SDS011;63074;44.696;10.358;2022-12-10T09:05:17;36.28;;;18.13;;
74523;SDS011;63074;44.696;10.358;2022-12-10T09:07:43;39.40;;;19.08;;
74523;SDS011;63074;44.696;10.358;2022-12-10T09:10:10;40.75;;;20.08;;
74523;SDS011;63074;44.696;10.358;2022-12-10T09:12:37;37.95;;;18.67;;
74523;SDS011;63074;44.696;10.358;2022-12-10T09:15:03;35.95;;;19.25;;
74523;SDS011;63074;44.696;10.358;2022-12-10T09:17:31;40.30;;;20.10;;
74523;SDS011;63074;44.696;10.358;2022-12-10T09:19:59;44.60;;;22.52;;
74523;SDS011;63074;44.696;10.358;2022-12-10T09:22:25;42.90;;;21.92;;
74523;SDS011;63074;44.696;10.358;2022-12-10T09:24:51;37.28;;;19.05;;
74523;SDS011;63074;44.696;10.358;2022-12-10T09:27:17;41.60;;;21.00;;
74523;SDS011;63074;44.696;10.358;2022-12-10T09:29:45;38.30;;;19.90;;
74523;SDS011;63074;44.696;10.358;2022-12-10T09:32:11;39.85;;;21.20;;
74523;SDS011;63074;44.696;10.358;2022-12-10T09:34:37;36.95;;;20.08;;
74523;SDS011;63074;44.696;10.358;2022-12-10T09:37:04;41.13;;;21.23;;
74523;SDS011;63074;44.696;10.358;2022-12-10T09:39:30;35.47;;;19.17;;
74523;SDS011;63074;44.696;10.358;2022-12-10T09:44:35;39.55;;;18.83;;
74523;SDS011;63074;44.696;10.358;2022-12-10T09:47:11;33.90;;;18.00;;
74523;SDS011;63074;44.696;10.358;2022-12-10T09:52:43;35.53;;;17.83;;
74523;SDS011;63074;44.696;10.358;2022-12-10T09:55:14;37.05;;;18.25;;
74523;SDS011;63074;44.696;10.358;2022-12-10T09:57:51;35.13;;;16.35;;
74523;SDS011;63074;44.696;10.358;2022-12-10T10:00:23;36.83;;;18.13;;
74523;SDS011;63074;44.696;10.358;2022-12-10T10:02:58;34.50;;;16.88;;
74523;SDS011;63074;44.696;10.358;2022-12-10T10:05:29;36.25;;;18.60;;
74523;SDS011;63074;44.696;10.358;2022-12-10T10:08:01;30.45;;;16.60;;
74523;SDS011;63074;44.696;10.358;2022-12-10T10:10:31;28.38;;;14.40;;
74523;SDS011;63074;44.696;10.358;2022-12-10T10:15:40;30.17;;;14.68;;
74523;SDS011;63074;44.696;10.358;2022-12-10T10:20:51;26.80;;;12.65;;
74523;SDS011;63074;44.696;10.358;2022-12-10T10:23:17;28.38;;;14.88;;
74523;SDS011;63074;44.696;10.358;2022-12-10T10:25:44;28.75;;;15.20;;
74523;SDS011;63074;44.696;10.358;2022-12-10T10:28:11;25.23;;;13.82;;
74523;SDS011;63074;44.696;10.358;2022-12-10T10:30:42;25.60;;;13.45;;
74523;SDS011;63074;44.696;10.358;2022-12-10T10:33:10;24.20;;;13.73;;
74523;SDS011;63074;44.696;10.358;2022-12-10T10:35:42;25.15;;;12.20;;
74523;SDS011;63074;44.696;10.358;2022-12-10T10:38:20;23.80;;;11.23;;
74523;SDS011;63074;44.696;10.358;2022-12-10T10:40:50;26.30;;;13.15;;
74523;SDS011;63074;44.696;10.358;2022-12-10T10:43:31;22.10;;;10.98;;
74523;SDS011;63074;44.696;10.358;2022-12-10T10:46:06;24.83;;;12.95;;
74523;SDS011;63074;44.696;10.358;2022-12-10T10:48:46;21.33;;;11.80;;
74523;SDS011;63074;44.696;10.358;2022-12-10T10:53:52;24.15;;;12.38;;
74523;SDS011;63074;44.696;10.358;2022-12-10T10:56:23;24.08;;;12.07;;
74523;SDS011;63074;44.696;10.358;2022-12-10T11:01:54;24.40;;;12.25;;
74523;SDS011;63074;44.696;10.358;2022-12-10T11:04:37;22.17;;;12.80;;
74523;SDS011;63074;44.696;10.358;2022-12-10T11:07:19;19.50;;;11.40;;
74523;SDS011;63074;44.696;10.358;2022-12-10T11:10:15;22.52;;;11.75;;
74523;SDS011;63074;44.696;10.358;2022-12-10T11:12:53;22.60;;;12.02;;
74523;SDS011;63074;44.696;10.358;2022-12-10T11:17:48;22.52;;;12.00;;
74523;SDS011;63074;44.696;10.358;2022-12-10T11:20:17;24.33;;;12.38;;
74523;SDS011;63074;44.696;10.358;2022-12-10T11:22:55;23.83;;;13.13;;
74523;SDS011;63074;44.696;10.358;2022-12-10T11:28:44;20.42;;;11.68;;
74523;SDS011;63074;44.696;10.358;2022-12-10T11:34:09;21.77;;;11.95;;
74523;SDS011;63074;44.696;10.358;2022-12-10T11:39:25;20.63;;;11.43;;
74523;SDS011;63074;44.696;10.358;2022-12-10T11:51:12;24.95;;;13.30;;
74523;SDS011;63074;44.696;10.358;2022-12-10T11:53:59;22.63;;;12.25;;
74523;SDS011;63074;44.696;10.358;2022-12-10T11:56:34;21.92;;;12.27;;
74523;SDS011;63074;44.696;10.358;2022-12-10T12:05:14;20.85;;;10.55;;
74523;SDS011;63074;44.696;10.358;2022-12-10T12:08:15;21.17;;;11.52;;
74523;SDS011;63074;44.696;10.358;2022-12-10T12:13:18;19.45;;;10.45;;
74523;SDS011;63074;44.696;10.358;2022-12-10T12:21:25;25.05;;;12.32;;
74523;SDS011;63074;44.696;10.358;2022-12-10T12:24:09;26.95;;;14.38;;
74523;SDS011;63074;44.696;10.358;2022-12-10T12:26:46;30.58;;;14.65;;
74523;SDS011;63074;44.696;10.358;2022-12-10T12:29:30;30.77;;;14.65;;
74523;SDS011;63074;44.696;10.358;2022-12-10T12:32:31;30.63;;;15.27;;
74523;SDS011;63074;44.696;10.358;2022-12-10T12:35:21;33.97;;;17.73;;
74523;SDS011;63074;44.696;10.358;2022-12-10T12:37:51;33.00;;;16.60;;
74523;SDS011;63074;44.696;10.358;2022-12-10T12:45:38;36.30;;;17.08;;
74523;SDS011;63074;44.696;10.358;2022-12-10T12:53:38;34.05;;;17.45;;
74523;SDS011;63074;44.696;10.358;2022-12-10T13:04:07;34.15;;;17.35;;
74523;SDS011;63074;44.696;10.358;2022-12-10T13:06:34;34.38;;;16.65;;
74523;SDS011;63074;44.696;10.358;2022-12-10T13:19:34;32.72;;;15.85;;
74523;SDS011;63074;44.696;10.358;2022-12-10T13:27:03;28.73;;;14.27;;
74523;SDS011;63074;44.696;10.358;2022-12-10T13:48:58;28.88;;;14.20;;
74523;SDS011;63074;44.696;10.358;2022-12-10T14:08:06;27.08;;;12.70;;
74523;SDS011;63074;44.696;10.358;2022-12-10T14:10:43;25.20;;;11.90;;
74523;SDS011;63074;44.696;10.358;2022-12-10T14:13:11;28.73;;;13.93;;
74523;SDS011;63074;44.696;10.358;2022-12-10T14:15:41;25.02;;;12.60;;
74523;SDS011;63074;44.696;10.358;2022-12-10T14:18:16;25.73;;;13.48;;
74523;SDS011;63074;44.696;10.358;2022-12-10T14:20:47;25.23;;;13.52;;
74523;SDS011;63074;44.696;10.358;2022-12-10T14:23:29;25.27;;;11.65;;
74523;SDS011;63074;44.696;10.358;2022-12-10T14:28:47;21.95;;;11.80;;
74523;SDS011;63074;44.696;10.358;2022-12-10T14:31:19;24.00;;;12.07;;
74523;SDS011;63074;44.696;10.358;2022-12-10T14:34:07;22.70;;;11.95;;
74523;SDS011;63074;44.696;10.358;2022-12-10T14:39:13;24.10;;;12.32;;
74523;SDS011;63074;44.696;10.358;2022-12-10T14:41:51;23.90;;;12.35;;
74523;SDS011;63074;44.696;10.358;2022-12-10T14:44:20;30.65;;;14.07;;
74523;SDS011;63074;44.696;10.358;2022-12-10T14:46:48;25.85;;;13.63;;
74523;SDS011;63074;44.696;10.358;2022-12-10T14:49:16;24.52;;;12.82;;
74523;SDS011;63074;44.696;10.358;2022-12-10T14:51:51;28.00;;;13.48;;
74523;SDS011;63074;44.696;10.358;2022-12-10T14:54:24;28.75;;;14.25;;
74523;SDS011;63074;44.696;10.358;2022-12-10T14:56:56;29.20;;;13.77;;
74523;SDS011;63074;44.696;10.358;2022-12-10T14:59:29;28.48;;;14.80;;
74523;SDS011;63074;44.696;10.358;2022-12-10T15:02:10;29.30;;;14.68;;
74523;SDS011;63074;44.696;10.358;2022-12-10T15:04:51;30.85;;;15.48;;
74523;SDS011;63074;44.696;10.358;2022-12-10T15:07:20;27.23;;;14.98;;
74523;SDS011;63074;44.696;10.358;2022-12-10T15:09:52;27.98;;;14.80;;
74523;SDS011;63074;44.696;10.358;2022-12-10T15:15:39;31.00;;;16.15;;
74523;SDS011;63074;44.696;10.358;2022-12-10T15:30:49;29.48;;;14.65;;
74523;SDS011;63074;44.696;10.358;2022-12-10T15:33:22;29.48;;;15.38;;
74523;SDS011;63074;44.696;10.358;2022-12-10T15:36:01;27.25;;;12.95;;
74523;SDS011;63074;44.696;10.358;2022-12-10T15:38:27;27.05;;;14.18;;
74523;SDS011;63074;44.696;10.358;2022-12-10T15:41:20;29.42;;;14.20;;
74523;SDS011;63074;44.696;10.358;2022-12-10T15:43:51;29.42;;;14.90;;
74523;SDS011;63074;44.696;10.358;2022-12-10T15:46:23;28.85;;;14.18;;
74523;SDS011;63074;44.696;10.358;2022-12-10T15:48:49;29.52;;;15.35;;
74523;SDS011;63074;44.696;10.358;2022-12-10T15:51:15;29.25;;;16.08;;
74523;SDS011;63074;44.696;10.358;2022-12-10T15:53:41;34.35;;;16.05;;
74523;SDS011;63074;44.696;10.358;2022-12-10T15:56:08;29.67;;;16.60;;
74523;SDS011;63074;44.696;10.358;2022-12-10T15:58:34;34.28;;;19.13;;
74523;SDS011;63074;44.696;10.358;2022-12-10T16:01:00;37.92;;;18.60;;
74523;SDS011;63074;44.696;10.358;2022-12-10T16:03:27;44.05;;;21.65;;
74523;SDS011;63074;44.696;10.358;2022-12-10T16:05:54;36.30;;;17.08;;
74523;SDS011;63074;44.696;10.358;2022-12-10T16:08:24;33.40;;;15.38;;
74523;SDS011;63074;44.696;10.358;2022-12-10T16:10:54;33.05;;;15.82;;
74523;SDS011;63074;44.696;10.358;2022-12-10T16:13:27;36.17;;;17.15;;
74523;SDS011;63074;44.696;10.358;2022-12-10T16:16:06;36.47;;;17.55;;
74523;SDS011;63074;44.696;10.358;2022-12-10T16:18:33;36.33;;;17.95;;
74523;SDS011;63074;44.696;10.358;2022-12-10T16:21:01;34.88;;;17.48;;
74523;SDS011;63074;44.696;10.358;2022-12-10T16:23:29;33.28;;;16.08;;
74523;SDS011;63074;44.696;10.358;2022-12-10T16:25:56;36.13;;;18.33;;
74523;SDS011;63074;44.696;10.358;2022-12-10T16:28:23;35.92;;;18.90;;
74523;SDS011;63074;44.696;10.358;2022-12-10T16:30:53;34.20;;;18.20;;
74523;SDS011;63074;44.696;10.358;2022-12-10T16:33:22;35.25;;;17.40;;
74523;SDS011;63074;44.696;10.358;2022-12-10T16:35:50;34.03;;;15.95;;
74523;SDS011;63074;44.696;10.358;2022-12-10T16:38:18;36.83;;;17.27;;
74523;SDS011;63074;44.696;10.358;2022-12-10T16:40:45;35.80;;;18.23;;
74523;SDS011;63074;44.696;10.358;2022-12-10T16:43:19;35.10;;;16.60;;
74523;SDS011;63074;44.696;10.358;2022-12-10T16:45:48;36.33;;;17.77;;
74523;SDS011;63074;44.696;10.358;2022-12-10T16:48:15;35.38;;;18.67;;
74523;SDS011;63074;44.696;10.358;2022-12-10T16:50:42;40.03;;;19.33;;
74523;SDS011;63074;44.696;10.358;2022-12-10T16:55:47;38.35;;;18.48;;
74523;SDS011;63074;44.696;10.358;2022-12-10T16:58:14;32.72;;;17.08;;
74523;SDS011;63074;44.696;10.358;2022-12-10T17:00:44;37.30;;;19.63;;
74523;SDS011;63074;44.696;10.358;2022-12-10T17:03:13;39.83;;;18.98;;
74523;SDS011;63074;44.696;10.358;2022-12-10T17:05:47;39.83;;;19.35;;
74523;SDS011;63074;44.696;10.358;2022-12-10T17:08:15;39.97;;;20.10;;